sensor_id;sensor_type;location;lat;lon;timestamp;P1;durP1;ratioP1;P2;durP2;ratioP2
16640;SDS011;8434;47.990;7.880;2022-12-18T00:00:28;32.00;;;12.33;;
16640;SDS011;8434;47.990;7.880;2022-12-18T00:03:14;25.80;;;12.73;;
16640;SDS011;8434;47.990;7.880;2022-12-18T00:05:59;30.90;;;11.80;;
16640;SDS011;8434;47.990;7.880;2022-12-18T00:08:44;25.47;;;12.10;;
16640;SDS011;8434;47.990;7.880;2022-12-18T00:11:30;25.77;;;12.50;;
16640;SDS011;8434;47.990;7.880;2022-12-18T00:14:15;32.07;;;12.67;;
16640;SDS011;8434;47.990;7.880;2022-12-18T00:17:02;25.17;;;11.53;;
16640;SDS011;8434;47.990;7.880;2022-12-18T00:19:48;29.23;;;13.00;;
16640;SDS011;8434;47.990;7.880;2022-12-18T00:22:33;33.93;;;14.37;;
16640;SDS011;8434;47.990;7.880;2022-12-18T00:25:18;28.77;;;13.23;;
16640;SDS011;8434;47.990;7.880;2022-12-18T00:28:03;34.83;;;14.33;;
16640;SDS011;8434;47.990;7.880;2022-12-18T00:30:48;32.17;;;14.27;;
16640;SDS011;8434;47.990;7.880;2022-12-18T00:33:35;27.10;;;12.83;;
16640;SDS011;8434;47.990;7.880;2022-12-18T00:36:22;33.50;;;14.90;;
16640;SDS011;8434;47.990;7.880;2022-12-18T00:39:07;34.10;;;16.23;;
16640;SDS011;8434;47.990;7.880;2022-12-18T00:41:52;32.87;;;14.20;;
16640;SDS011;8434;47.990;7.880;2022-12-18T00:44:55;32.90;;;13.10;;
16640;SDS011;8434;47.990;7.880;2022-12-18T00:47:40;28.10;;;14.13;;
16640;SDS011;8434;47.990;7.880;2022-12-18T00:50:25;27.67;;;13.27;;
16640;SDS011;8434;47.990;7.880;2022-12-18T00:53:12;31.30;;;14.53;;
16640;SDS011;8434;47.990;7.880;2022-12-18T00:55:57;31.43;;;13.60;;
16640;SDS011;8434;47.990;7.880;2022-12-18T00:58:42;30.00;;;12.93;;
16640;SDS011;8434;47.990;7.880;2022-12-18T01:01:26;29.23;;;14.07;;
16640;SDS011;8434;47.990;7.880;2022-12-18T01:04:11;33.67;;;13.77;;
16640;SDS011;8434;47.990;7.880;2022-12-18T01:06:56;26.60;;;13.17;;
16640;SDS011;8434;47.990;7.880;2022-12-18T01:09:43;26.87;;;11.80;;
16640;SDS011;8434;47.990;7.880;2022-12-18T01:12:28;26.23;;;12.83;;
16640;SDS011;8434;47.990;7.880;2022-12-18T01:15:13;29.20;;;13.83;;
16640;SDS011;8434;47.990;7.880;2022-12-18T01:17:58;25.33;;;12.30;;
16640;SDS011;8434;47.990;7.880;2022-12-18T01:20:46;25.87;;;13.47;;
16640;SDS011;8434;47.990;7.880;2022-12-18T01:23:31;28.93;;;12.87;;
16640;SDS011;8434;47.990;7.880;2022-12-18T01:26:17;24.57;;;12.90;;
16640;SDS011;8434;47.990;7.880;2022-12-18T01:29:02;25.03;;;13.23;;
16640;SDS011;8434;47.990;7.880;2022-12-18T01:31:47;23.53;;;11.80;;
16640;SDS011;8434;47.990;7.880;2022-12-18T01:34:32;20.97;;;11.27;;
16640;SDS011;8434;47.990;7.880;2022-12-18T01:37:18;27.43;;;11.47;;
16640;SDS011;8434;47.990;7.880;2022-12-18T01:40:03;24.20;;;11.17;;
16640;SDS011;8434;47.990;7.880;2022-12-18T01:42:51;23.43;;;11.20;;
16640;SDS011;8434;47.990;7.880;2022-12-18T01:45:36;31.30;;;14.20;;
16640;SDS011;8434;47.990;7.880;2022-12-18T01:48:20;23.33;;;11.83;;
16640;SDS011;8434;47.990;7.880;2022-12-18T01:51:06;21.50;;;11.57;;
16640;SDS011;8434;47.990;7.880;2022-12-18T01:53:51;25.93;;;12.50;;
16640;SDS011;8434;47.990;7.880;2022-12-18T01:56:36;25.07;;;12.93;;
16640;SDS011;8434;47.990;7.880;2022-12-18T01:59:22;27.60;;;12.90;;
16640;SDS011;8434;47.990;7.880;2022-12-18T02:02:08;29.03;;;13.57;;
16640;SDS011;8434;47.990;7.880;2022-12-18T02:04:52;26.23;;;12.43;;
16640;SDS011;8434;47.990;7.880;2022-12-18T02:07:40;22.47;;;11.10;;
16640;SDS011;8434;47.990;7.880;2022-12-18T02:10:27;26.23;;;13.13;;
16640;SDS011;8434;47.990;7.880;2022-12-18T02:13:18;27.17;;;12.13;;
16640;SDS011;8434;47.990;7.880;2022-12-18T02:16:06;24.77;;;12.27;;
16640;SDS011;8434;47.990;7.880;2022-12-18T02:18:54;30.27;;;14.07;;
16640;SDS011;8434;47.990;7.880;2022-12-18T02:21:42;32.07;;;13.33;;
16640;SDS011;8434;47.990;7.880;2022-12-18T02:24:31;23.73;;;12.30;;
16640;SDS011;8434;47.990;7.880;2022-12-18T02:27:20;25.40;;;13.43;;
16640;SDS011;8434;47.990;7.880;2022-12-18T02:30:06;24.20;;;12.43;;
16640;SDS011;8434;47.990;7.880;2022-12-18T02:32:52;23.87;;;12.23;;
16640;SDS011;8434;47.990;7.880;2022-12-18T02:35:38;26.30;;;12.70;;
16640;SDS011;8434;47.990;7.880;2022-12-18T02:38:24;23.33;;;10.80;;
16640;SDS011;8434;47.990;7.880;2022-12-18T02:41:09;24.37;;;11.47;;
16640;SDS011;8434;47.990;7.880;2022-12-18T02:43:57;23.97;;;11.57;;
16640;SDS011;8434;47.990;7.880;2022-12-18T02:46:42;23.80;;;11.83;;
16640;SDS011;8434;47.990;7.880;2022-12-18T02:49:30;20.73;;;10.27;;
16640;SDS011;8434;47.990;7.880;2022-12-18T02:52:18;26.80;;;12.90;;
16640;SDS011;8434;47.990;7.880;2022-12-18T02:55:16;24.40;;;12.47;;
16640;SDS011;8434;47.990;7.880;2022-12-18T02:58:04;21.63;;;11.73;;
16640;SDS011;8434;47.990;7.880;2022-12-18T03:00:53;25.33;;;11.70;;
16640;SDS011;8434;47.990;7.880;2022-12-18T03:03:43;24.97;;;12.13;;
16640;SDS011;8434;47.990;7.880;2022-12-18T03:06:32;24.70;;;11.93;;
16640;SDS011;8434;47.990;7.880;2022-12-18T03:09:19;26.10;;;12.63;;
16640;SDS011;8434;47.990;7.880;2022-12-18T03:12:06;25.20;;;12.67;;
16640;SDS011;8434;47.990;7.880;2022-12-18T03:15:08;23.17;;;11.13;;
16640;SDS011;8434;47.990;7.880;2022-12-18T03:17:57;29.20;;;13.10;;
16640;SDS011;8434;47.990;7.880;2022-12-18T03:20:44;20.27;;;11.17;;
16640;SDS011;8434;47.990;7.880;2022-12-18T03:23:32;22.10;;;10.90;;
16640;SDS011;8434;47.990;7.880;2022-12-18T03:26:19;22.13;;;11.87;;
16640;SDS011;8434;47.990;7.880;2022-12-18T03:29:06;21.93;;;11.93;;
16640;SDS011;8434;47.990;7.880;2022-12-18T03:31:54;21.57;;;11.37;;
16640;SDS011;8434;47.990;7.880;2022-12-18T03:34:41;21.97;;;10.13;;
16640;SDS011;8434;47.990;7.880;2022-12-18T03:37:27;18.83;;;11.03;;
16640;SDS011;8434;47.990;7.880;2022-12-18T03:40:15;21.37;;;11.50;;
16640;SDS011;8434;47.990;7.880;2022-12-18T03:43:02;18.30;;;9.30;;
16640;SDS011;8434;47.990;7.880;2022-12-18T03:45:48;22.93;;;11.07;;
16640;SDS011;8434;47.990;7.880;2022-12-18T03:48:37;21.33;;;10.60;;
16640;SDS011;8434;47.990;7.880;2022-12-18T03:51:25;21.37;;;10.27;;
16640;SDS011;8434;47.990;7.880;2022-12-18T03:54:12;20.97;;;10.87;;
16640;SDS011;8434;47.990;7.880;2022-12-18T03:56:59;19.53;;;9.07;;
16640;SDS011;8434;47.990;7.880;2022-12-18T03:59:46;20.17;;;9.83;;
16640;SDS011;8434;47.990;7.880;2022-12-18T04:02:33;23.30;;;10.43;;
16640;SDS011;8434;47.990;7.880;2022-12-18T04:05:19;17.63;;;8.27;;
16640;SDS011;8434;47.990;7.880;2022-12-18T04:08:06;21.67;;;11.10;;
16640;SDS011;8434;47.990;7.880;2022-12-18T04:10:51;24.47;;;11.17;;
16640;SDS011;8434;47.990;7.880;2022-12-18T04:13:36;19.13;;;10.33;;
16640;SDS011;8434;47.990;7.880;2022-12-18T04:16:22;20.37;;;9.47;;
16640;SDS011;8434;47.990;7.880;2022-12-18T04:19:07;21.43;;;10.53;;
16640;SDS011;8434;47.990;7.880;2022-12-18T04:21:51;17.93;;;9.47;;
16640;SDS011;8434;47.990;7.880;2022-12-18T04:24:38;21.13;;;9.73;;
16640;SDS011;8434;47.990;7.880;2022-12-18T04:27:23;24.80;;;10.07;;
16640;SDS011;8434;47.990;7.880;2022-12-18T04:30:08;19.33;;;9.33;;
16640;SDS011;8434;47.990;7.880;2022-12-18T04:32:53;19.60;;;8.93;;
16640;SDS011;8434;47.990;7.880;2022-12-18T04:35:38;17.47;;;9.27;;
16640;SDS011;8434;47.990;7.880;2022-12-18T04:38:23;18.27;;;9.97;;
16640;SDS011;8434;47.990;7.880;2022-12-18T04:41:09;20.97;;;8.53;;
16640;SDS011;8434;47.990;7.880;2022-12-18T04:43:57;16.37;;;8.57;;
16640;SDS011;8434;47.990;7.880;2022-12-18T04:46:42;17.30;;;8.67;;
16640;SDS011;8434;47.990;7.880;2022-12-18T04:49:27;19.50;;;8.87;;
16640;SDS011;8434;47.990;7.880;2022-12-18T04:52:12;18.40;;;9.33;;
16640;SDS011;8434;47.990;7.880;2022-12-18T04:54:56;17.90;;;9.03;;
16640;SDS011;8434;47.990;7.880;2022-12-18T04:57:43;18.70;;;9.33;;
16640;SDS011;8434;47.990;7.880;2022-12-18T05:00:27;18.60;;;9.17;;
16640;SDS011;8434;47.990;7.880;2022-12-18T05:03:12;16.97;;;8.60;;
16640;SDS011;8434;47.990;7.880;2022-12-18T05:05:57;21.77;;;9.83;;
16640;SDS011;8434;47.990;7.880;2022-12-18T05:08:42;19.23;;;9.10;;
16640;SDS011;8434;47.990;7.880;2022-12-18T05:11:27;20.97;;;9.60;;
16640;SDS011;8434;47.990;7.880;2022-12-18T05:14:13;17.13;;;8.17;;
16640;SDS011;8434;47.990;7.880;2022-12-18T05:16:58;14.43;;;7.43;;
16640;SDS011;8434;47.990;7.880;2022-12-18T05:19:43;17.03;;;7.37;;
16640;SDS011;8434;47.990;7.880;2022-12-18T05:22:28;16.77;;;7.43;;
16640;SDS011;8434;47.990;7.880;2022-12-18T05:25:13;13.60;;;6.97;;
16640;SDS011;8434;47.990;7.880;2022-12-18T05:27:58;16.83;;;7.57;;
16640;SDS011;8434;47.990;7.880;2022-12-18T05:30:46;16.00;;;7.67;;
16640;SDS011;8434;47.990;7.880;2022-12-18T05:33:32;13.20;;;7.50;;
16640;SDS011;8434;47.990;7.880;2022-12-18T05:36:18;16.00;;;8.80;;
16640;SDS011;8434;47.990;7.880;2022-12-18T05:39:03;16.67;;;8.37;;
16640;SDS011;8434;47.990;7.880;2022-12-18T05:41:48;15.10;;;7.30;;
16640;SDS011;8434;47.990;7.880;2022-12-18T05:44:33;15.67;;;7.33;;
16640;SDS011;8434;47.990;7.880;2022-12-18T05:47:20;12.03;;;6.23;;
16640;SDS011;8434;47.990;7.880;2022-12-18T05:50:05;12.60;;;6.57;;
16640;SDS011;8434;47.990;7.880;2022-12-18T05:52:51;13.23;;;6.53;;
16640;SDS011;8434;47.990;7.880;2022-12-18T05:55:36;13.77;;;5.80;;
16640;SDS011;8434;47.990;7.880;2022-12-18T05:58:22;10.10;;;5.27;;
16640;SDS011;8434;47.990;7.880;2022-12-18T06:01:08;14.00;;;6.20;;
16640;SDS011;8434;47.990;7.880;2022-12-18T06:03:55;9.70;;;5.07;;
16640;SDS011;8434;47.990;7.880;2022-12-18T06:06:40;10.17;;;5.67;;
16640;SDS011;8434;47.990;7.880;2022-12-18T06:09:25;9.03;;;5.27;;
16640;SDS011;8434;47.990;7.880;2022-12-18T06:12:09;11.73;;;5.47;;
16640;SDS011;8434;47.990;7.880;2022-12-18T06:14:55;13.63;;;6.73;;
16640;SDS011;8434;47.990;7.880;2022-12-18T06:17:40;13.90;;;6.83;;
16640;SDS011;8434;47.990;7.880;2022-12-18T06:20:26;11.67;;;6.67;;
16640;SDS011;8434;47.990;7.880;2022-12-18T06:23:14;13.07;;;5.77;;
16640;SDS011;8434;47.990;7.880;2022-12-18T06:25:58;12.90;;;6.63;;
16640;SDS011;8434;47.990;7.880;2022-12-18T06:28:43;13.63;;;6.50;;
16640;SDS011;8434;47.990;7.880;2022-12-18T06:31:28;10.93;;;6.73;;
16640;SDS011;8434;47.990;7.880;2022-12-18T06:34:13;13.60;;;6.20;;
16640;SDS011;8434;47.990;7.880;2022-12-18T06:37:00;11.30;;;6.33;;
16640;SDS011;8434;47.990;7.880;2022-12-18T06:39:44;14.80;;;6.73;;
16640;SDS011;8434;47.990;7.880;2022-12-18T06:42:29;13.60;;;6.73;;
16640;SDS011;8434;47.990;7.880;2022-12-18T06:45:15;14.97;;;6.57;;
16640;SDS011;8434;47.990;7.880;2022-12-18T06:48:00;14.93;;;6.50;;
16640;SDS011;8434;47.990;7.880;2022-12-18T06:50:46;10.87;;;6.23;;
16640;SDS011;8434;47.990;7.880;2022-12-18T06:53:32;19.37;;;7.27;;
16640;SDS011;8434;47.990;7.880;2022-12-18T06:56:17;12.70;;;6.20;;
16640;SDS011;8434;47.990;7.880;2022-12-18T06:59:02;11.97;;;6.33;;
16640;SDS011;8434;47.990;7.880;2022-12-18T07:01:47;14.53;;;6.10;;
16640;SDS011;8434;47.990;7.880;2022-12-18T07:04:32;15.57;;;6.97;;
16640;SDS011;8434;47.990;7.880;2022-12-18T07:07:17;13.03;;;6.30;;
16640;SDS011;8434;47.990;7.880;2022-12-18T07:10:04;12.57;;;5.33;;
16640;SDS011;8434;47.990;7.880;2022-12-18T07:12:49;12.87;;;6.03;;
16640;SDS011;8434;47.990;7.880;2022-12-18T07:15:34;13.90;;;6.40;;
16640;SDS011;8434;47.990;7.880;2022-12-18T07:18:19;14.83;;;6.60;;
16640;SDS011;8434;47.990;7.880;2022-12-18T07:21:04;13.03;;;5.93;;
16640;SDS011;8434;47.990;7.880;2022-12-18T07:23:49;10.23;;;5.53;;
16640;SDS011;8434;47.990;7.880;2022-12-18T07:26:35;8.57;;;5.43;;
16640;SDS011;8434;47.990;7.880;2022-12-18T07:29:21;11.70;;;5.57;;
16640;SDS011;8434;47.990;7.880;2022-12-18T07:32:06;10.53;;;4.77;;
16640;SDS011;8434;47.990;7.880;2022-12-18T07:34:52;10.47;;;5.07;;
16640;SDS011;8434;47.990;7.880;2022-12-18T07:37:36;13.03;;;5.20;;
16640;SDS011;8434;47.990;7.880;2022-12-18T07:40:21;12.47;;;6.67;;
16640;SDS011;8434;47.990;7.880;2022-12-18T07:43:08;11.23;;;5.63;;
16640;SDS011;8434;47.990;7.880;2022-12-18T07:45:53;12.43;;;5.93;;
16640;SDS011;8434;47.990;7.880;2022-12-18T07:48:38;14.20;;;6.00;;
16640;SDS011;8434;47.990;7.880;2022-12-18T07:51:23;8.83;;;4.83;;
16640;SDS011;8434;47.990;7.880;2022-12-18T07:54:08;14.27;;;6.37;;
16640;SDS011;8434;47.990;7.880;2022-12-18T07:56:52;11.80;;;5.63;;
16640;SDS011;8434;47.990;7.880;2022-12-18T07:59:39;8.63;;;5.47;;
16640;SDS011;8434;47.990;7.880;2022-12-18T08:02:24;10.33;;;5.60;;
16640;SDS011;8434;47.990;7.880;2022-12-18T08:05:09;15.03;;;6.97;;
16640;SDS011;8434;47.990;7.880;2022-12-18T08:07:54;9.37;;;6.10;;
16640;SDS011;8434;47.990;7.880;2022-12-18T08:10:39;16.80;;;8.57;;
16640;SDS011;8434;47.990;7.880;2022-12-18T08:13:24;20.87;;;10.20;;
16640;SDS011;8434;47.990;7.880;2022-12-18T08:16:10;15.03;;;7.87;;
16640;SDS011;8434;47.990;7.880;2022-12-18T08:18:55;13.67;;;7.30;;
16640;SDS011;8434;47.990;7.880;2022-12-18T08:21:40;12.63;;;7.50;;
16640;SDS011;8434;47.990;7.880;2022-12-18T08:24:25;13.63;;;6.80;;
16640;SDS011;8434;47.990;7.880;2022-12-18T08:27:10;14.30;;;6.40;;
16640;SDS011;8434;47.990;7.880;2022-12-18T08:29:55;14.30;;;7.37;;
16640;SDS011;8434;47.990;7.880;2022-12-18T08:32:41;12.83;;;8.47;;
16640;SDS011;8434;47.990;7.880;2022-12-18T08:35:26;15.37;;;8.67;;
16640;SDS011;8434;47.990;7.880;2022-12-18T08:38:11;16.73;;;9.87;;
16640;SDS011;8434;47.990;7.880;2022-12-18T08:40:58;21.07;;;10.17;;
16640;SDS011;8434;47.990;7.880;2022-12-18T08:43:43;18.00;;;10.03;;
16640;SDS011;8434;47.990;7.880;2022-12-18T08:46:46;15.07;;;8.60;;
16640;SDS011;8434;47.990;7.880;2022-12-18T08:49:32;18.20;;;9.43;;
16640;SDS011;8434;47.990;7.880;2022-12-18T08:52:17;14.90;;;8.73;;
16640;SDS011;8434;47.990;7.880;2022-12-18T08:55:03;12.67;;;7.27;;
16640;SDS011;8434;47.990;7.880;2022-12-18T08:57:48;12.17;;;7.33;;
16640;SDS011;8434;47.990;7.880;2022-12-18T09:00:33;12.73;;;7.13;;
16640;SDS011;8434;47.990;7.880;2022-12-18T09:03:18;14.93;;;8.10;;
16640;SDS011;8434;47.990;7.880;2022-12-18T09:06:07;11.93;;;8.00;;
16640;SDS011;8434;47.990;7.880;2022-12-18T09:08:52;14.03;;;9.40;;
16640;SDS011;8434;47.990;7.880;2022-12-18T09:11:37;17.93;;;11.97;;
16640;SDS011;8434;47.990;7.880;2022-12-18T09:14:22;26.63;;;14.17;;
16640;SDS011;8434;47.990;7.880;2022-12-18T09:17:07;19.37;;;12.17;;
16640;SDS011;8434;47.990;7.880;2022-12-18T09:19:53;18.70;;;11.77;;
16640;SDS011;8434;47.990;7.880;2022-12-18T09:22:39;22.87;;;13.73;;
16640;SDS011;8434;47.990;7.880;2022-12-18T09:25:24;24.77;;;14.67;;
16640;SDS011;8434;47.990;7.880;2022-12-18T09:28:10;25.60;;;14.87;;
16640;SDS011;8434;47.990;7.880;2022-12-18T09:30:58;27.50;;;18.83;;
16640;SDS011;8434;47.990;7.880;2022-12-18T09:33:43;25.23;;;17.27;;
16640;SDS011;8434;47.990;7.880;2022-12-18T09:36:28;16.30;;;9.83;;
16640;SDS011;8434;47.990;7.880;2022-12-18T09:39:14;13.90;;;9.73;;
16640;SDS011;8434;47.990;7.880;2022-12-18T09:41:59;14.80;;;9.67;;
16640;SDS011;8434;47.990;7.880;2022-12-18T09:44:44;13.93;;;9.03;;
16640;SDS011;8434;47.990;7.880;2022-12-18T09:47:33;15.90;;;9.47;;
16640;SDS011;8434;47.990;7.880;2022-12-18T09:50:22;15.33;;;8.87;;
16640;SDS011;8434;47.990;7.880;2022-12-18T09:53:10;13.90;;;8.63;;
16640;SDS011;8434;47.990;7.880;2022-12-18T09:55:58;15.03;;;9.43;;
16640;SDS011;8434;47.990;7.880;2022-12-18T09:58:45;15.00;;;8.93;;
16640;SDS011;8434;47.990;7.880;2022-12-18T10:01:32;16.17;;;9.53;;
16640;SDS011;8434;47.990;7.880;2022-12-18T10:04:17;15.57;;;9.53;;
16640;SDS011;8434;47.990;7.880;2022-12-18T10:07:03;14.23;;;9.77;;
16640;SDS011;8434;47.990;7.880;2022-12-18T10:09:53;16.30;;;10.10;;
16640;SDS011;8434;47.990;7.880;2022-12-18T10:12:42;17.37;;;11.33;;
16640;SDS011;8434;47.990;7.880;2022-12-18T10:15:31;16.50;;;10.40;;
16640;SDS011;8434;47.990;7.880;2022-12-18T10:18:22;17.07;;;10.70;;
16640;SDS011;8434;47.990;7.880;2022-12-18T10:21:11;13.13;;;9.67;;
16640;SDS011;8434;47.990;7.880;2022-12-18T10:23:59;15.60;;;10.40;;
16640;SDS011;8434;47.990;7.880;2022-12-18T10:26:48;15.33;;;10.70;;
16640;SDS011;8434;47.990;7.880;2022-12-18T10:29:34;16.17;;;10.70;;
16640;SDS011;8434;47.990;7.880;2022-12-18T10:32:20;14.63;;;9.03;;
16640;SDS011;8434;47.990;7.880;2022-12-18T10:35:07;12.87;;;7.83;;
16640;SDS011;8434;47.990;7.880;2022-12-18T10:37:59;10.87;;;7.13;;
16640;SDS011;8434;47.990;7.880;2022-12-18T10:40:48;10.80;;;7.93;;
16640;SDS011;8434;47.990;7.880;2022-12-18T10:43:34;11.40;;;7.37;;
16640;SDS011;8434;47.990;7.880;2022-12-18T10:46:21;12.47;;;7.47;;
16640;SDS011;8434;47.990;7.880;2022-12-18T10:49:17;12.93;;;8.33;;
16640;SDS011;8434;47.990;7.880;2022-12-18T10:52:07;13.53;;;7.60;;
16640;SDS011;8434;47.990;7.880;2022-12-18T10:54:53;9.57;;;6.20;;
16640;SDS011;8434;47.990;7.880;2022-12-18T10:57:40;7.87;;;5.33;;
16640;SDS011;8434;47.990;7.880;2022-12-18T11:00:27;10.37;;;6.43;;
16640;SDS011;8434;47.990;7.880;2022-12-18T11:06:14;13.37;;;8.17;;
16640;SDS011;8434;47.990;7.880;2022-12-18T11:09:00;13.73;;;7.60;;
16640;SDS011;8434;47.990;7.880;2022-12-18T11:11:47;12.83;;;8.17;;
16640;SDS011;8434;47.990;7.880;2022-12-18T11:14:34;11.23;;;7.67;;
16640;SDS011;8434;47.990;7.880;2022-12-18T11:17:27;14.37;;;9.33;;
16640;SDS011;8434;47.990;7.880;2022-12-18T11:20:19;19.40;;;9.93;;
16640;SDS011;8434;47.990;7.880;2022-12-18T11:23:10;15.53;;;10.43;;
16640;SDS011;8434;47.990;7.880;2022-12-18T11:25:57;19.13;;;11.47;;
16640;SDS011;8434;47.990;7.880;2022-12-18T11:28:43;23.10;;;12.43;;
16640;SDS011;8434;47.990;7.880;2022-12-18T11:31:29;25.40;;;14.93;;
16640;SDS011;8434;47.990;7.880;2022-12-18T11:34:16;32.23;;;15.70;;
16640;SDS011;8434;47.990;7.880;2022-12-18T11:37:05;29.80;;;15.40;;
16640;SDS011;8434;47.990;7.880;2022-12-18T11:39:52;26.93;;;15.03;;
16640;SDS011;8434;47.990;7.880;2022-12-18T11:42:41;30.33;;;16.53;;
16640;SDS011;8434;47.990;7.880;2022-12-18T11:45:30;31.10;;;16.63;;
16640;SDS011;8434;47.990;7.880;2022-12-18T11:48:18;33.60;;;18.03;;
16640;SDS011;8434;47.990;7.880;2022-12-18T11:51:08;36.83;;;18.20;;
16640;SDS011;8434;47.990;7.880;2022-12-18T11:53:54;32.73;;;16.77;;
16640;SDS011;8434;47.990;7.880;2022-12-18T11:56:43;34.83;;;17.87;;
16640;SDS011;8434;47.990;7.880;2022-12-18T11:59:33;31.47;;;17.40;;
16640;SDS011;8434;47.990;7.880;2022-12-18T12:02:30;31.17;;;16.80;;
16640;SDS011;8434;47.990;7.880;2022-12-18T12:05:31;33.70;;;18.37;;
16640;SDS011;8434;47.990;7.880;2022-12-18T12:08:22;37.27;;;17.83;;
16640;SDS011;8434;47.990;7.880;2022-12-18T12:11:12;31.00;;;16.83;;
16640;SDS011;8434;47.990;7.880;2022-12-18T12:14:05;35.87;;;18.83;;
16640;SDS011;8434;47.990;7.880;2022-12-18T12:16:55;32.33;;;18.40;;
16640;SDS011;8434;47.990;7.880;2022-12-18T12:19:44;29.30;;;17.27;;
16640;SDS011;8434;47.990;7.880;2022-12-18T12:22:32;32.63;;;19.27;;
16640;SDS011;8434;47.990;7.880;2022-12-18T12:25:21;38.23;;;19.07;;
16640;SDS011;8434;47.990;7.880;2022-12-18T12:28:13;37.77;;;20.37;;
16640;SDS011;8434;47.990;7.880;2022-12-18T12:31:05;35.63;;;20.60;;
16640;SDS011;8434;47.990;7.880;2022-12-18T12:33:51;36.50;;;18.67;;
16640;SDS011;8434;47.990;7.880;2022-12-18T12:36:42;29.03;;;16.93;;
16640;SDS011;8434;47.990;7.880;2022-12-18T12:39:31;37.07;;;19.33;;
16640;SDS011;8434;47.990;7.880;2022-12-18T12:42:18;29.40;;;17.47;;
16640;SDS011;8434;47.990;7.880;2022-12-18T12:45:23;35.90;;;19.80;;
16640;SDS011;8434;47.990;7.880;2022-12-18T12:48:13;35.87;;;20.13;;
16640;SDS011;8434;47.990;7.880;2022-12-18T12:51:01;35.03;;;19.13;;
16640;SDS011;8434;47.990;7.880;2022-12-18T12:53:48;41.17;;;19.23;;
16640;SDS011;8434;47.990;7.880;2022-12-18T12:56:38;35.10;;;19.47;;
16640;SDS011;8434;47.990;7.880;2022-12-18T12:59:25;30.03;;;17.57;;
16640;SDS011;8434;47.990;7.880;2022-12-18T13:02:15;36.47;;;18.60;;
16640;SDS011;8434;47.990;7.880;2022-12-18T13:05:04;36.37;;;18.83;;
16640;SDS011;8434;47.990;7.880;2022-12-18T13:07:56;34.97;;;19.37;;
16640;SDS011;8434;47.990;7.880;2022-12-18T13:10:42;35.53;;;18.37;;
16640;SDS011;8434;47.990;7.880;2022-12-18T13:13:27;31.63;;;18.30;;
16640;SDS011;8434;47.990;7.880;2022-12-18T13:16:31;34.27;;;18.03;;
16640;SDS011;8434;47.990;7.880;2022-12-18T13:19:21;33.70;;;19.23;;
16640;SDS011;8434;47.990;7.880;2022-12-18T13:22:21;34.80;;;19.63;;
16640;SDS011;8434;47.990;7.880;2022-12-18T13:28:11;33.77;;;18.30;;
16640;SDS011;8434;47.990;7.880;2022-12-18T13:30:56;35.87;;;18.33;;
16640;SDS011;8434;47.990;7.880;2022-12-18T13:33:42;34.43;;;19.20;;
16640;SDS011;8434;47.990;7.880;2022-12-18T13:36:29;35.00;;;20.03;;
16640;SDS011;8434;47.990;7.880;2022-12-18T13:42:35;35.73;;;19.70;;
16640;SDS011;8434;47.990;7.880;2022-12-18T13:45:46;37.40;;;20.73;;
16640;SDS011;8434;47.990;7.880;2022-12-18T13:48:33;38.20;;;19.00;;
16640;SDS011;8434;47.990;7.880;2022-12-18T13:51:19;33.57;;;18.27;;
16640;SDS011;8434;47.990;7.880;2022-12-18T13:54:06;36.37;;;18.40;;
16640;SDS011;8434;47.990;7.880;2022-12-18T13:56:58;29.93;;;18.10;;
16640;SDS011;8434;47.990;7.880;2022-12-18T13:59:45;34.17;;;18.73;;
16640;SDS011;8434;47.990;7.880;2022-12-18T14:02:30;37.07;;;19.83;;
16640;SDS011;8434;47.990;7.880;2022-12-18T14:05:21;32.77;;;18.57;;
16640;SDS011;8434;47.990;7.880;2022-12-18T14:08:08;39.20;;;19.73;;
16640;SDS011;8434;47.990;7.880;2022-12-18T14:10:54;36.73;;;19.20;;
16640;SDS011;8434;47.990;7.880;2022-12-18T14:13:41;38.83;;;19.87;;
16640;SDS011;8434;47.990;7.880;2022-12-18T14:16:28;33.87;;;18.47;;
16640;SDS011;8434;47.990;7.880;2022-12-18T14:19:14;27.10;;;16.80;;
16640;SDS011;8434;47.990;7.880;2022-12-18T14:22:00;36.63;;;18.53;;
16640;SDS011;8434;47.990;7.880;2022-12-18T14:24:45;31.67;;;17.63;;
16640;SDS011;8434;47.990;7.880;2022-12-18T14:27:30;34.00;;;17.93;;
16640;SDS011;8434;47.990;7.880;2022-12-18T14:30:23;30.30;;;16.70;;
16640;SDS011;8434;47.990;7.880;2022-12-18T14:33:13;33.77;;;17.07;;
16640;SDS011;8434;47.990;7.880;2022-12-18T14:35:59;31.03;;;16.57;;
16640;SDS011;8434;47.990;7.880;2022-12-18T14:38:47;28.50;;;16.23;;
16640;SDS011;8434;47.990;7.880;2022-12-18T14:41:32;33.37;;;16.40;;
16640;SDS011;8434;47.990;7.880;2022-12-18T14:44:17;28.97;;;16.10;;
16640;SDS011;8434;47.990;7.880;2022-12-18T14:47:04;26.63;;;16.67;;
16640;SDS011;8434;47.990;7.880;2022-12-18T14:49:50;24.70;;;14.60;;
16640;SDS011;8434;47.990;7.880;2022-12-18T14:52:35;29.30;;;16.57;;
16640;SDS011;8434;47.990;7.880;2022-12-18T14:55:20;30.47;;;17.30;;
16640;SDS011;8434;47.990;7.880;2022-12-18T14:58:10;30.40;;;17.03;;
16640;SDS011;8434;47.990;7.880;2022-12-18T15:00:57;26.80;;;15.90;;
16640;SDS011;8434;47.990;7.880;2022-12-18T15:03:43;25.93;;;15.70;;
16640;SDS011;8434;47.990;7.880;2022-12-18T15:06:31;28.17;;;16.87;;
16640;SDS011;8434;47.990;7.880;2022-12-18T15:09:21;31.23;;;16.40;;
16640;SDS011;8434;47.990;7.880;2022-12-18T15:12:15;27.60;;;16.33;;
16640;SDS011;8434;47.990;7.880;2022-12-18T15:15:03;28.37;;;16.80;;
16640;SDS011;8434;47.990;7.880;2022-12-18T15:17:48;26.53;;;15.80;;
16640;SDS011;8434;47.990;7.880;2022-12-18T15:20:38;31.53;;;16.23;;
16640;SDS011;8434;47.990;7.880;2022-12-18T15:23:26;27.57;;;17.37;;
16640;SDS011;8434;47.990;7.880;2022-12-18T15:26:12;32.23;;;18.07;;
16640;SDS011;8434;47.990;7.880;2022-12-18T15:28:58;30.43;;;17.13;;
16640;SDS011;8434;47.990;7.880;2022-12-18T15:31:45;28.30;;;15.17;;
16640;SDS011;8434;47.990;7.880;2022-12-18T15:34:42;29.33;;;15.70;;
16640;SDS011;8434;47.990;7.880;2022-12-18T15:37:27;31.10;;;16.77;;
16640;SDS011;8434;47.990;7.880;2022-12-18T15:40:14;29.70;;;16.73;;
16640;SDS011;8434;47.990;7.880;2022-12-18T15:42:59;28.87;;;17.43;;
16640;SDS011;8434;47.990;7.880;2022-12-18T15:46:03;31.77;;;17.63;;
16640;SDS011;8434;47.990;7.880;2022-12-18T15:48:49;27.10;;;16.90;;
16640;SDS011;8434;47.990;7.880;2022-12-18T15:51:35;28.67;;;17.53;;
16640;SDS011;8434;47.990;7.880;2022-12-18T15:54:20;28.43;;;15.87;;
16640;SDS011;8434;47.990;7.880;2022-12-18T15:57:27;25.27;;;15.17;;
16640;SDS011;8434;47.990;7.880;2022-12-18T16:00:11;27.00;;;16.33;;
16640;SDS011;8434;47.990;7.880;2022-12-18T16:02:57;29.57;;;17.50;;
16640;SDS011;8434;47.990;7.880;2022-12-18T16:05:42;31.90;;;17.63;;
16640;SDS011;8434;47.990;7.880;2022-12-18T16:08:27;28.20;;;15.90;;
16640;SDS011;8434;47.990;7.880;2022-12-18T16:11:16;26.53;;;16.53;;
16640;SDS011;8434;47.990;7.880;2022-12-18T16:14:23;27.03;;;16.57;;
16640;SDS011;8434;47.990;7.880;2022-12-18T16:17:09;28.90;;;16.07;;
16640;SDS011;8434;47.990;7.880;2022-12-18T16:19:55;32.93;;;18.10;;
16640;SDS011;8434;47.990;7.880;2022-12-18T16:22:40;25.87;;;16.00;;
16640;SDS011;8434;47.990;7.880;2022-12-18T16:25:26;29.77;;;17.80;;
16640;SDS011;8434;47.990;7.880;2022-12-18T16:28:12;29.30;;;16.20;;
16640;SDS011;8434;47.990;7.880;2022-12-18T16:30:58;30.10;;;16.47;;
16640;SDS011;8434;47.990;7.880;2022-12-18T16:33:43;33.67;;;17.80;;
16640;SDS011;8434;47.990;7.880;2022-12-18T16:36:28;30.07;;;17.00;;
16640;SDS011;8434;47.990;7.880;2022-12-18T16:39:13;31.10;;;19.13;;
16640;SDS011;8434;47.990;7.880;2022-12-18T16:41:58;33.57;;;18.40;;
16640;SDS011;8434;47.990;7.880;2022-12-18T16:44:43;35.87;;;19.63;;
16640;SDS011;8434;47.990;7.880;2022-12-18T16:47:30;36.73;;;21.53;;